sensor_id;sensor_type;location;lat;lon;timestamp;temperature;humidity
3256;DHT22;1640;48.504;9.224;2023-07-13T00:00:24;20.90;64.50
3256;DHT22;1640;48.504;9.224;2023-07-13T00:02:51;20.70;63.40
3256;DHT22;1640;48.504;9.224;2023-07-13T00:05:21;20.70;62.90
3256;DHT22;1640;48.504;9.224;2023-07-13T00:07:49;20.60;61.70
3256;DHT22;1640;48.504;9.224;2023-07-13T00:10:19;20.50;59.60
3256;DHT22;1640;48.504;9.224;2023-07-13T00:12:48;20.40;58.00
3256;DHT22;1640;48.504;9.224;2023-07-13T00:15:18;20.30;56.50
3256;DHT22;1640;48.504;9.224;2023-07-13T00:17:48;20.30;55.90
3256;DHT22;1640;48.504;9.224;2023-07-13T00:20:16;20.20;55.10
3256;DHT22;1640;48.504;9.224;2023-07-13T00:22:45;20.20;54.40
3256;DHT22;1640;48.504;9.224;2023-07-13T00:25:13;20.20;53.50
3256;DHT22;1640;48.504;9.224;2023-07-13T00:27:44;20.20;52.40
3256;DHT22;1640;48.504;9.224;2023-07-13T00:30:15;20.10;50.10
3256;DHT22;1640;48.504;9.224;2023-07-13T00:32:42;20.00;47.80
3256;DHT22;1640;48.504;9.224;2023-07-13T00:35:12;20.00;45.10
3256;DHT22;1640;48.504;9.224;2023-07-13T00:37:40;20.00;44.20
3256;DHT22;1640;48.504;9.224;2023-07-13T00:40:11;19.90;41.10
3256;DHT22;1640;48.504;9.224;2023-07-13T00:42:40;19.90;37.20
3256;DHT22;1640;48.504;9.224;2023-07-13T00:48:18;19.80;34.20
3256;DHT22;1640;48.504;9.224;2023-07-13T00:50:53;19.70;37.10
3256;DHT22;1640;48.504;9.224;2023-07-13T00:53:21;19.70;33.90
3256;DHT22;1640;48.504;9.224;2023-07-13T00:55:51;19.70;32.40
3256;DHT22;1640;48.504;9.224;2023-07-13T00:58:19;19.70;33.00
3256;DHT22;1640;48.504;9.224;2023-07-13T01:00:48;19.80;35.60
3256;DHT22;1640;48.504;9.224;2023-07-13T01:03:17;19.80;35.00
3256;DHT22;1640;48.504;9.224;2023-07-13T01:05:47;19.80;37.20
3256;DHT22;1640;48.504;9.224;2023-07-13T01:08:15;19.90;38.40
3256;DHT22;1640;48.504;9.224;2023-07-13T01:10:52;19.90;39.90
3256;DHT22;1640;48.504;9.224;2023-07-13T01:13:20;19.90;40.00
3256;DHT22;1640;48.504;9.224;2023-07-13T01:15:49;20.00;42.60
3256;DHT22;1640;48.504;9.224;2023-07-13T01:18:20;20.00;45.70
3256;DHT22;1640;48.504;9.224;2023-07-13T01:20:53;20.00;44.50
3256;DHT22;1640;48.504;9.224;2023-07-13T01:23:21;20.00;46.60
3256;DHT22;1640;48.504;9.224;2023-07-13T01:25:50;20.00;46.60
3256;DHT22;1640;48.504;9.224;2023-07-13T01:28:19;20.10;48.50
3256;DHT22;1640;48.504;9.224;2023-07-13T01:30:46;20.20;48.90
3256;DHT22;1640;48.504;9.224;2023-07-13T01:33:15;20.10;49.10
3256;DHT22;1640;48.504;9.224;2023-07-13T01:35:43;20.20;51.70
3256;DHT22;1640;48.504;9.224;2023-07-13T01:38:14;20.20;57.40
3256;DHT22;1640;48.504;9.224;2023-07-13T01:40:42;20.10;53.50
3256;DHT22;1640;48.504;9.224;2023-07-13T01:43:12;20.10;54.40
3256;DHT22;1640;48.504;9.224;2023-07-13T01:45:40;20.10;55.80
3256;DHT22;1640;48.504;9.224;2023-07-13T01:48:10;20.10;55.00
3256;DHT22;1640;48.504;9.224;2023-07-13T01:50:37;20.10;58.80
3256;DHT22;1640;48.504;9.224;2023-07-13T01:53:05;20.10;60.90
3256;DHT22;1640;48.504;9.224;2023-07-13T01:55:34;20.00;59.90
3256;DHT22;1640;48.504;9.224;2023-07-13T01:58:03;20.00;59.30
3256;DHT22;1640;48.504;9.224;2023-07-13T02:00:30;20.00;57.80
3256;DHT22;1640;48.504;9.224;2023-07-13T02:02:58;20.00;59.20
3256;DHT22;1640;48.504;9.224;2023-07-13T02:05:26;20.00;59.60
3256;DHT22;1640;48.504;9.224;2023-07-13T02:07:53;19.90;61.90
3256;DHT22;1640;48.504;9.224;2023-07-13T02:10:21;19.90;61.30
3256;DHT22;1640;48.504;9.224;2023-07-13T02:12:50;19.80;62.40
3256;DHT22;1640;48.504;9.224;2023-07-13T02:15:18;19.70;61.40
3256;DHT22;1640;48.504;9.224;2023-07-13T02:17:46;19.70;60.30
3256;DHT22;1640;48.504;9.224;2023-07-13T02:20:13;19.70;60.00
3256;DHT22;1640;48.504;9.224;2023-07-13T02:22:41;19.60;60.00
3256;DHT22;1640;48.504;9.224;2023-07-13T02:25:09;19.50;62.00
3256;DHT22;1640;48.504;9.224;2023-07-13T02:27:36;19.50;60.40
3256;DHT22;1640;48.504;9.224;2023-07-13T02:30:08;19.50;61.30
3256;DHT22;1640;48.504;9.224;2023-07-13T02:32:35;19.50;60.00
3256;DHT22;1640;48.504;9.224;2023-07-13T02:35:03;19.50;61.90
3256;DHT22;1640;48.504;9.224;2023-07-13T02:37:31;19.40;61.30
3256;DHT22;1640;48.504;9.224;2023-07-13T02:39:59;19.40;59.50
3256;DHT22;1640;48.504;9.224;2023-07-13T02:42:26;19.40;56.70
3256;DHT22;1640;48.504;9.224;2023-07-13T02:44:54;19.30;52.10
3256;DHT22;1640;48.504;9.224;2023-07-13T02:47:23;19.20;46.70
3256;DHT22;1640;48.504;9.224;2023-07-13T02:49:50;19.10;42.10
3256;DHT22;1640;48.504;9.224;2023-07-13T02:52:19;19.00;38.80
3256;DHT22;1640;48.504;9.224;2023-07-13T02:54:46;18.90;36.20
3256;DHT22;1640;48.504;9.224;2023-07-13T02:57:14;18.80;34.60
3256;DHT22;1640;48.504;9.224;2023-07-13T02:59:42;18.70;30.50
3256;DHT22;1640;48.504;9.224;2023-07-13T03:02:09;18.60;27.60
3256;DHT22;1640;48.504;9.224;2023-07-13T03:04:38;18.50;27.90
3256;DHT22;1640;48.504;9.224;2023-07-13T03:07:07;18.50;26.30
3256;DHT22;1640;48.504;9.224;2023-07-13T03:09:35;18.40;24.00
3256;DHT22;1640;48.504;9.224;2023-07-13T03:12:03;18.40;21.70
3256;DHT22;1640;48.504;9.224;2023-07-13T03:14:31;18.40;18.80
3256;DHT22;1640;48.504;9.224;2023-07-13T03:16:59;18.30;16.20
3256;DHT22;1640;48.504;9.224;2023-07-13T03:19:26;18.40;20.30
3256;DHT22;1640;48.504;9.224;2023-07-13T03:21:55;18.40;18.80
3256;DHT22;1640;48.504;9.224;2023-07-13T03:24:22;18.40;14.30
3256;DHT22;1640;48.504;9.224;2023-07-13T03:26:52;18.40;15.90
3256;DHT22;1640;48.504;9.224;2023-07-13T03:29:19;18.40;18.70
3256;DHT22;1640;48.504;9.224;2023-07-13T03:31:47;18.50;14.80
3256;DHT22;1640;48.504;9.224;2023-07-13T03:34:15;18.50;20.10
3256;DHT22;1640;48.504;9.224;2023-07-13T03:36:42;18.60;14.50
3256;DHT22;1640;48.504;9.224;2023-07-13T03:39:12;18.60;18.20
3256;DHT22;1640;48.504;9.224;2023-07-13T03:41:39;18.70;21.80
3256;DHT22;1640;48.504;9.224;2023-07-13T03:44:07;18.70;18.90
3256;DHT22;1640;48.504;9.224;2023-07-13T03:46:34;18.80;22.40
3256;DHT22;1640;48.504;9.224;2023-07-13T03:49:04;18.80;25.40
3256;DHT22;1640;48.504;9.224;2023-07-13T03:51:32;18.90;24.40
3256;DHT22;1640;48.504;9.224;2023-07-13T03:54:00;19.00;25.50
3256;DHT22;1640;48.504;9.224;2023-07-13T03:56:29;19.00;26.90
3256;DHT22;1640;48.504;9.224;2023-07-13T03:58:59;18.90;26.40
3256;DHT22;1640;48.504;9.224;2023-07-13T04:01:28;18.90;24.10
3256;DHT22;1640;48.504;9.224;2023-07-13T04:03:56;18.90;25.10
3256;DHT22;1640;48.504;9.224;2023-07-13T04:06:26;18.90;26.80
3256;DHT22;1640;48.504;9.224;2023-07-13T04:08:58;18.90;33.70
3256;DHT22;1640;48.504;9.224;2023-07-13T04:11:31;18.70;29.20
3256;DHT22;1640;48.504;9.224;2023-07-13T04:13:59;18.60;26.50
3256;DHT22;1640;48.504;9.224;2023-07-13T04:16:27;18.50;25.00
3256;DHT22;1640;48.504;9.224;2023-07-13T04:18:56;18.60;23.00
3256;DHT22;1640;48.504;9.224;2023-07-13T04:21:26;18.60;23.20
3256;DHT22;1640;48.504;9.224;2023-07-13T04:23:55;18.60;19.60
3256;DHT22;1640;48.504;9.224;2023-07-13T04:26:23;18.60;27.40
3256;DHT22;1640;48.504;9.224;2023-07-13T04:28:52;18.70;24.10
3256;DHT22;1640;48.504;9.224;2023-07-13T04:31:20;18.60;26.50
3256;DHT22;1640;48.504;9.224;2023-07-13T04:33:48;18.70;24.70
3256;DHT22;1640;48.504;9.224;2023-07-13T04:36:17;18.80;22.40
3256;DHT22;1640;48.504;9.224;2023-07-13T04:38:44;18.80;25.00
3256;DHT22;1640;48.504;9.224;2023-07-13T04:41:13;18.80;21.30
3256;DHT22;1640;48.504;9.224;2023-07-13T04:43:41;19.00;21.50
3256;DHT22;1640;48.504;9.224;2023-07-13T04:46:13;19.00;27.50
3256;DHT22;1640;48.504;9.224;2023-07-13T04:48:41;19.00;23.40
3256;DHT22;1640;48.504;9.224;2023-07-13T04:51:09;19.10;23.00
3256;DHT22;1640;48.504;9.224;2023-07-13T04:53:36;19.10;24.00
3256;DHT22;1640;48.504;9.224;2023-07-13T04:56:04;19.10;26.70
3256;DHT22;1640;48.504;9.224;2023-07-13T04:58:32;19.20;23.90
3256;DHT22;1640;48.504;9.224;2023-07-13T05:01:00;19.20;21.20
3256;DHT22;1640;48.504;9.224;2023-07-13T05:03:29;19.10;25.00
3256;DHT22;1640;48.504;9.224;2023-07-13T05:05:59;19.10;23.90
3256;DHT22;1640;48.504;9.224;2023-07-13T05:08:27;19.10;23.40
3256;DHT22;1640;48.504;9.224;2023-07-13T05:10:55;19.10;18.50
3256;DHT22;1640;48.504;9.224;2023-07-13T05:13:22;19.20;23.00
3256;DHT22;1640;48.504;9.224;2023-07-13T05:15:56;19.30;25.60
3256;DHT22;1640;48.504;9.224;2023-07-13T05:18:24;19.40;25.30
3256;DHT22;1640;48.504;9.224;2023-07-13T05:21:04;19.60;29.50
3256;DHT22;1640;48.504;9.224;2023-07-13T05:23:33;19.80;35.80
3256;DHT22;1640;48.504;9.224;2023-07-13T05:26:01;19.80;46.80
3256;DHT22;1640;48.504;9.224;2023-07-13T05:28:30;19.70;38.10
3256;DHT22;1640;48.504;9.224;2023-07-13T05:30:58;19.80;40.40
3256;DHT22;1640;48.504;9.224;2023-07-13T05:33:27;20.00;39.50
3256;DHT22;1640;48.504;9.224;2023-07-13T05:35:54;20.10;40.60
3256;DHT22;1640;48.504;9.224;2023-07-13T05:38:23;20.00;49.90
3256;DHT22;1640;48.504;9.224;2023-07-13T05:40:53;20.10;50.60
3256;DHT22;1640;48.504;9.224;2023-07-13T05:43:21;20.10;47.20
3256;DHT22;1640;48.504;9.224;2023-07-13T05:45:49;20.20;47.90
3256;DHT22;1640;48.504;9.224;2023-07-13T05:48:18;20.30;53.10
3256;DHT22;1640;48.504;9.224;2023-07-13T05:50:45;20.30;51.30
3256;DHT22;1640;48.504;9.224;2023-07-13T05:53:13;20.10;54.00
3256;DHT22;1640;48.504;9.224;2023-07-13T05:55:43;19.90;51.30
3256;DHT22;1640;48.504;9.224;2023-07-13T05:58:11;19.90;49.00
3256;DHT22;1640;48.504;9.224;2023-07-13T06:00:38;20.10;48.20
3256;DHT22;1640;48.504;9.224;2023-07-13T06:03:07;20.30;51.00
3256;DHT22;1640;48.504;9.224;2023-07-13T06:05:35;20.30;53.60
3256;DHT22;1640;48.504;9.224;2023-07-13T06:08:04;20.30;56.20
3256;DHT22;1640;48.504;9.224;2023-07-13T06:10:32;20.50;57.40
3256;DHT22;1640;48.504;9.224;2023-07-13T06:13:02;20.40;63.20
3256;DHT22;1640;48.504;9.224;2023-07-13T06:15:29;20.50;63.70
3256;DHT22;1640;48.504;9.224;2023-07-13T06:17:57;20.80;65.30
3256;DHT22;1640;48.504;9.224;2023-07-13T06:20:24;21.00;63.90
3256;DHT22;1640;48.504;9.224;2023-07-13T06:22:52;21.20;67.30
3256;DHT22;1640;48.504;9.224;2023-07-13T06:25:20;21.10;67.50
3256;DHT22;1640;48.504;9.224;2023-07-13T06:27:47;21.20;66.60
3256;DHT22;1640;48.504;9.224;2023-07-13T06:30:16;21.20;67.90
3256;DHT22;1640;48.504;9.224;2023-07-13T06:32:44;21.20;69.00
3256;DHT22;1640;48.504;9.224;2023-07-13T06:35:11;20.90;71.10
3256;DHT22;1640;48.504;9.224;2023-07-13T06:37:39;21.00;69.90
3256;DHT22;1640;48.504;9.224;2023-07-13T06:40:08;21.00;71.10
3256;DHT22;1640;48.504;9.224;2023-07-13T06:42:36;20.80;70.50
3256;DHT22;1640;48.504;9.224;2023-07-13T06:45:05;20.80;70.30
3256;DHT22;1640;48.504;9.224;2023-07-13T06:47:35;20.70;70.90
3256;DHT22;1640;48.504;9.224;2023-07-13T06:50:03;20.70;69.60
3256;DHT22;1640;48.504;9.224;2023-07-13T06:52:30;20.80;71.50
3256;DHT22;1640;48.504;9.224;2023-07-13T06:54:58;20.80;71.10
3256;DHT22;1640;48.504;9.224;2023-07-13T06:57:25;20.90;70.60
3256;DHT22;1640;48.504;9.224;2023-07-13T06:59:53;20.90;70.90
3256;DHT22;1640;48.504;9.224;2023-07-13T07:02:21;20.90;69.90
3256;DHT22;1640;48.504;9.224;2023-07-13T07:04:50;20.90;69.50
3256;DHT22;1640;48.504;9.224;2023-07-13T07:07:17;20.90;69.90
3256;DHT22;1640;48.504;9.224;2023-07-13T07:09:45;20.90;68.90
3256;DHT22;1640;48.504;9.224;2023-07-13T07:12:12;20.90;68.50
3256;DHT22;1640;48.504;9.224;2023-07-13T07:14:40;20.90;67.60
3256;DHT22;1640;48.504;9.224;2023-07-13T07:17:07;20.90;68.30
3256;DHT22;1640;48.504;9.224;2023-07-13T07:19:35;20.80;67.90
3256;DHT22;1640;48.504;9.224;2023-07-13T07:22:04;20.90;68.90
3256;DHT22;1640;48.504;9.224;2023-07-13T07:24:32;21.20;69.20
3256;DHT22;1640;48.504;9.224;2023-07-13T07:26:59;21.60;67.00
3256;DHT22;1640;48.504;9.224;2023-07-13T07:29:27;22.20;61.60
3256;DHT22;1640;48.504;9.224;2023-07-13T07:31:54;22.50;60.00
3256;DHT22;1640;48.504;9.224;2023-07-13T07:34:22;22.40;59.30
3256;DHT22;1640;48.504;9.224;2023-07-13T07:36:49;22.30;58.60
3256;DHT22;1640;48.504;9.224;2023-07-13T07:39:20;22.30;61.70
3256;DHT22;1640;48.504;9.224;2023-07-13T07:41:47;22.30;59.60
3256;DHT22;1640;48.504;9.224;2023-07-13T07:44:15;22.10;59.00
3256;DHT22;1640;48.504;9.224;2023-07-13T07:46:42;22.10;58.20
3256;DHT22;1640;48.504;9.224;2023-07-13T07:49:10;22.10;57.10
3256;DHT22;1640;48.504;9.224;2023-07-13T07:51:37;22.20;59.20
3256;DHT22;1640;48.504;9.224;2023-07-13T07:54:05;22.40;56.60
3256;DHT22;1640;48.504;9.224;2023-07-13T07:56:34;22.40;55.10
3256;DHT22;1640;48.504;9.224;2023-07-13T07:59:02;22.60;57.30
3256;DHT22;1640;48.504;9.224;2023-07-13T08:01:29;22.70;51.40
3256;DHT22;1640;48.504;9.224;2023-07-13T08:03:57;22.60;51.40
3256;DHT22;1640;48.504;9.224;2023-07-13T08:06:25;22.60;50.90
3256;DHT22;1640;48.504;9.224;2023-07-13T08:08:52;22.50;52.40
3256;DHT22;1640;48.504;9.224;2023-07-13T08:11:21;22.30;52.40
3256;DHT22;1640;48.504;9.224;2023-07-13T08:13:50;22.30;52.70
3256;DHT22;1640;48.504;9.224;2023-07-13T08:16:17;22.10;52.00
3256;DHT22;1640;48.504;9.224;2023-07-13T08:18:45;22.00;53.70
3256;DHT22;1640;48.504;9.224;2023-07-13T08:21:12;21.90;54.20
3256;DHT22;1640;48.504;9.224;2023-07-13T08:23:40;22.00;55.80
3256;DHT22;1640;48.504;9.224;2023-07-13T08:26:09;22.10;55.90
3256;DHT22;1640;48.504;9.224;2023-07-13T08:28:36;22.20;55.20
3256;DHT22;1640;48.504;9.224;2023-07-13T08:31:07;22.20;52.90
3256;DHT22;1640;48.504;9.224;2023-07-13T08:33:35;22.40;53.60
3256;DHT22;1640;48.504;9.224;2023-07-13T08:36:04;22.40;55.10
3256;DHT22;1640;48.504;9.224;2023-07-13T08:38:32;22.40;53.70
3256;DHT22;1640;48.504;9.224;2023-07-13T08:41:02;22.40;54.80
3256;DHT22;1640;48.504;9.224;2023-07-13T08:43:35;22.50;54.20
3256;DHT22;1640;48.504;9.224;2023-07-13T08:46:12;22.50;53.70
3256;DHT22;1640;48.504;9.224;2023-07-13T08:48:44;22.70;52.00
3256;DHT22;1640;48.504;9.224;2023-07-13T08:54:03;22.50;53.30
3256;DHT22;1640;48.504;9.224;2023-07-13T08:56:32;22.40;53.20
3256;DHT22;1640;48.504;9.224;2023-07-13T08:59:05;22.50;55.50
3256;DHT22;1640;48.504;9.224;2023-07-13T09:01:53;22.50;53.70
3256;DHT22;1640;48.504;9.224;2023-07-13T09:04:28;22.60;55.10
3256;DHT22;1640;48.504;9.224;2023-07-13T09:07:05;22.70;55.20
3256;DHT22;1640;48.504;9.224;2023-07-13T09:09:46;23.00;54.70
3256;DHT22;1640;48.504;9.224;2023-07-13T09:12:22;23.00;53.50
3256;DHT22;1640;48.504;9.224;2023-07-13T09:14:53;23.10;51.70
3256;DHT22;1640;48.504;9.224;2023-07-13T09:17:27;23.00;51.70
3256;DHT22;1640;48.504;9.224;2023-07-13T09:20:00;23.00;53.20
3256;DHT22;1640;48.504;9.224;2023-07-13T09:22:33;23.00;52.00
3256;DHT22;1640;48.504;9.224;2023-07-13T09:25:06;23.10;51.30
3256;DHT22;1640;48.504;9.224;2023-07-13T09:27:43;23.20;48.70
3256;DHT22;1640;48.504;9.224;2023-07-13T09:30:23;23.30;48.00
3256;DHT22;1640;48.504;9.224;2023-07-13T09:32:53;23.50;49.30
3256;DHT22;1640;48.504;9.224;2023-07-13T09:35:25;23.60;47.10
3256;DHT22;1640;48.504;9.224;2023-07-13T09:37:58;23.50;47.60
3256;DHT22;1640;48.504;9.224;2023-07-13T09:40:35;23.60;49.00
3256;DHT22;1640;48.504;9.224;2023-07-13T09:43:04;23.90;48.60
3256;DHT22;1640;48.504;9.224;2023-07-13T09:45:34;24.20;47.90
3256;DHT22;1640;48.504;9.224;2023-07-13T09:48:06;24.40;45.30
3256;DHT22;1640;48.504;9.224;2023-07-13T09:50:34;24.50;45.90
3256;DHT22;1640;48.504;9.224;2023-07-13T09:53:03;24.50;45.50
3256;DHT22;1640;48.504;9.224;2023-07-13T09:55:32;24.30;44.00
3256;DHT22;1640;48.504;9.224;2023-07-13T09:58:04;24.30;43.60
3256;DHT22;1640;48.504;9.224;2023-07-13T10:00:32;24.10;45.70
3256;DHT22;1640;48.504;9.224;2023-07-13T10:03:03;24.30;45.50
3256;DHT22;1640;48.504;9.224;2023-07-13T10:05:40;24.30;45.30
3256;DHT22;1640;48.504;9.224;2023-07-13T10:08:17;24.50;43.20
3256;DHT22;1640;48.504;9.224;2023-07-13T10:10:44;24.70;42.80
3256;DHT22;1640;48.504;9.224;2023-07-13T10:13:27;25.00;43.20
3256;DHT22;1640;48.504;9.224;2023-07-13T10:15:57;25.20;43.20
3256;DHT22;1640;48.504;9.224;2023-07-13T10:18:25;25.30;43.80
3256;DHT22;1640;48.504;9.224;2023-07-13T10:21:00;25.40;42.80
3256;DHT22;1640;48.504;9.224;2023-07-13T10:23:36;25.30;41.90
3256;DHT22;1640;48.504;9.224;2023-07-13T10:26:12;25.30;43.00
3256;DHT22;1640;48.504;9.224;2023-07-13T10:28:41;25.20;43.60
3256;DHT22;1640;48.504;9.224;2023-07-13T10:31:12;25.00;43.00
3256;DHT22;1640;48.504;9.224;2023-07-13T10:33:40;24.90;43.70
3256;DHT22;1640;48.504;9.224;2023-07-13T10:36:17;24.90;41.90
3256;DHT22;1640;48.504;9.224;2023-07-13T10:38:50;24.90;39.80
3256;DHT22;1640;48.504;9.224;2023-07-13T10:41:21;25.00;39.80
3256;DHT22;1640;48.504;9.224;2023-07-13T10:43:51;24.90;40.30
3256;DHT22;1640;48.504;9.224;2023-07-13T10:46:22;24.90;41.80
3256;DHT22;1640;48.504;9.224;2023-07-13T10:48:53;25.10;42.60
3256;DHT22;1640;48.504;9.224;2023-07-13T10:51:23;25.50;41.30
3256;DHT22;1640;48.504;9.224;2023-07-13T10:54:16;25.80;40.60
3256;DHT22;1640;48.504;9.224;2023-07-13T10:56:45;26.20;41.40
3256;DHT22;1640;48.504;9.224;2023-07-13T10:59:15;26.50;38.50
3256;DHT22;1640;48.504;9.224;2023-07-13T11:01:56;26.80;39.40
3256;DHT22;1640;48.504;9.224;2023-07-13T11:04:26;26.80;37.30
3256;DHT22;1640;48.504;9.224;2023-07-13T11:06:59;27.10;38.30
3256;DHT22;1640;48.504;9.224;2023-07-13T11:09:38;27.60;37.20
3256;DHT22;1640;48.504;9.224;2023-07-13T11:12:09;27.60;37.30
3256;DHT22;1640;48.504;9.224;2023-07-13T11:14:44;27.60;37.50
3256;DHT22;1640;48.504;9.224;2023-07-13T11:17:38;27.40;36.80
3256;DHT22;1640;48.504;9.224;2023-07-13T11:20:22;27.10;38.50
3256;DHT22;1640;48.504;9.224;2023-07-13T11:22:53;27.20;36.60
3256;DHT22;1640;48.504;9.224;2023-07-13T11:25:35;27.30;37.60
3256;DHT22;1640;48.504;9.224;2023-07-13T11:28:16;27.20;38.10
3256;DHT22;1640;48.504;9.224;2023-07-13T11:30:46;27.00;37.50
3256;DHT22;1640;48.504;9.224;2023-07-13T11:33:17;27.10;37.70
3256;DHT22;1640;48.504;9.224;2023-07-13T11:36:00;27.20;37.60
3256;DHT22;1640;48.504;9.224;2023-07-13T11:38:33;27.00;36.50
3256;DHT22;1640;48.504;9.224;2023-07-13T11:41:05;26.70;37.10
3256;DHT22;1640;48.504;9.224;2023-07-13T11:43:33;26.70;37.50
3256;DHT22;1640;48.504;9.224;2023-07-13T11:46:20;26.30;37.70
3256;DHT22;1640;48.504;9.224;2023-07-13T11:48:49;26.40;39.80
3256;DHT22;1640;48.504;9.224;2023-07-13T11:51:22;26.60;38.80
3256;DHT22;1640;48.504;9.224;2023-07-13T11:53:54;27.00;38.80
3256;DHT22;1640;48.504;9.224;2023-07-13T11:56:23;27.50;36.20
3256;DHT22;1640;48.504;9.224;2023-07-13T11:58:54;27.80;36.00
3256;DHT22;1640;48.504;9.224;2023-07-13T12:01:26;27.90;37.20
3256;DHT22;1640;48.504;9.224;2023-07-13T12:03:55;28.10;34.70
3256;DHT22;1640;48.504;9.224;2023-07-13T12:06:27;28.10;35.60
3256;DHT22;1640;48.504;9.224;2023-07-13T12:09:00;28.10;34.20
3256;DHT22;1640;48.504;9.224;2023-07-13T12:11:30;27.80;35.30
3256;DHT22;1640;48.504;9.224;2023-07-13T12:13:59;27.50;34.50
3256;DHT22;1640;48.504;9.224;2023-07-13T12:16:29;27.40;35.40
3256;DHT22;1640;48.504;9.224;2023-07-13T12:19:00;27.10;36.40
3256;DHT22;1640;48.504;9.224;2023-07-13T12:21:33;26.90;36.20
3256;DHT22;1640;48.504;9.224;2023-07-13T12:24:03;26.80;38.70
3256;DHT22;1640;48.504;9.224;2023-07-13T12:26:31;27.10;36.60
3256;DHT22;1640;48.504;9.224;2023-07-13T12:29:01;27.10;35.70
3256;DHT22;1640;48.504;9.224;2023-07-13T12:31:35;26.90;34.90
3256;DHT22;1640;48.504;9.224;2023-07-13T12:34:08;26.80;34.90
3256;DHT22;1640;48.504;9.224;2023-07-13T12:36:38;26.70;35.40
3256;DHT22;1640;48.504;9.224;2023-07-13T12:39:18;27.00;36.00
3256;DHT22;1640;48.504;9.224;2023-07-13T12:41:47;27.40;36.50
3256;DHT22;1640;48.504;9.224;2023-07-13T12:44:18;27.70;35.30
3256;DHT22;1640;48.504;9.224;2023-07-13T12:46:53;27.80;34.60
3256;DHT22;1640;48.504;9.224;2023-07-13T12:49:26;27.90;34.60
3256;DHT22;1640;48.504;9.224;2023-07-13T12:51:58;28.00;35.60
3256;DHT22;1640;48.504;9.224;2023-07-13T12:54:28;28.40;34.50
3256;DHT22;1640;48.504;9.224;2023-07-13T12:56:57;28.40;34.30
3256;DHT22;1640;48.504;9.224;2023-07-13T12:59:30;28.30;31.50
3256;DHT22;1640;48.504;9.224;2023-07-13T13:01:59;28.00;32.30
3256;DHT22;1640;48.504;9.224;2023-07-13T13:04:29;27.70;32.00
3256;DHT22;1640;48.504;9.224;2023-07-13T13:07:05;27.40;33.50
3256;DHT22;1640;48.504;9.224;2023-07-13T13:09:37;27.20;33.10
3256;DHT22;1640;48.504;9.224;2023-07-13T13:12:05;27.20;33.00
3256;DHT22;1640;48.504;9.224;2023-07-13T13:14:32;27.30;32.40
3256;DHT22;1640;48.504;9.224;2023-07-13T13:17:00;27.30;32.80
3256;DHT22;1640;48.504;9.224;2023-07-13T13:19:29;27.50;33.30
3256;DHT22;1640;48.504;9.224;2023-07-13T13:21:57;27.80;31.50
3256;DHT22;1640;48.504;9.224;2023-07-13T13:24:27;27.80;31.80
3256;DHT22;1640;48.504;9.224;2023-07-13T13:26:56;28.00;31.50
3256;DHT22;1640;48.504;9.224;2023-07-13T13:29:24;27.50;31.20
3256;DHT22;1640;48.504;9.224;2023-07-13T13:31:52;27.10;31.60
3256;DHT22;1640;48.504;9.224;2023-07-13T13:34:22;26.90;32.80
3256;DHT22;1640;48.504;9.224;2023-07-13T13:36:51;26.90;32.30
3256;DHT22;1640;48.504;9.224;2023-07-13T13:39:21;26.80;31.90
3256;DHT22;1640;48.504;9.224;2023-07-13T13:41:50;27.00;33.10
3256;DHT22;1640;48.504;9.224;2023-07-13T13:44:21;27.30;32.40
3256;DHT22;1640;48.504;9.224;2023-07-13T13:46:52;27.70;31.40
3256;DHT22;1640;48.504;9.224;2023-07-13T13:49:23;27.90;30.80
3256;DHT22;1640;48.504;9.224;2023-07-13T13:51:51;27.90;31.40
3256;DHT22;1640;48.504;9.224;2023-07-13T13:54:20;27.90;30.90
3256;DHT22;1640;48.504;9.224;2023-07-13T13:56:49;27.90;31.80
3256;DHT22;1640;48.504;9.224;2023-07-13T13:59:19;27.80;30.40
3256;DHT22;1640;48.504;9.224;2023-07-13T14:01:48;27.80;32.20
3256;DHT22;1640;48.504;9.224;2023-07-13T14:04:19;27.90;31.20
3256;DHT22;1640;48.504;9.224;2023-07-13T14:06:47;27.50;30.10
3256;DHT22;1640;48.504;9.224;2023-07-13T14:09:17;27.30;30.70
3256;DHT22;1640;48.504;9.224;2023-07-13T14:11:46;27.30;30.90
3256;DHT22;1640;48.504;9.224;2023-07-13T14:14:17;27.60;31.10
3256;DHT22;1640;48.504;9.224;2023-07-13T14:16:47;27.90;31.50
3256;DHT22;1640;48.504;9.224;2023-07-13T14:19:19;28.20;30.90
3256;DHT22;1640;48.504;9.224;2023-07-13T14:21:47;28.50;31.10
3256;DHT22;1640;48.504;9.224;2023-07-13T14:24:15;28.80;29.60
3256;DHT22;1640;48.504;9.224;2023-07-13T14:26:46;29.00;29.50
3256;DHT22;1640;48.504;9.224;2023-07-13T14:29:16;29.50;28.70
3256;DHT22;1640;48.504;9.224;2023-07-13T14:31:45;30.00;27.50
3256;DHT22;1640;48.504;9.224;2023-07-13T14:34:14;30.20;27.20
3256;DHT22;1640;48.504;9.224;2023-07-13T14:36:42;31.00;26.50
3256;DHT22;1640;48.504;9.224;2023-07-13T14:39:14;31.00;25.80
3256;DHT22;1640;48.504;9.224;2023-07-13T14:41:43;30.80;25.50
3256;DHT22;1640;48.504;9.224;2023-07-13T14:44:12;29.70;26.60
3256;DHT22;1640;48.504;9.224;2023-07-13T14:46:40;29.30;28.10
3256;DHT22;1640;48.504;9.224;2023-07-13T14:49:20;29.80;26.90
3256;DHT22;1640;48.504;9.224;2023-07-13T14:51:49;31.20;26.10
3256;DHT22;1640;48.504;9.224;2023-07-13T14:54:17;32.60;25.50
3256;DHT22;1640;48.504;9.224;2023-07-13T14:56:44;33.70;24.60
3256;DHT22;1640;48.504;9.224;2023-07-13T14:59:12;33.80;23.00
3256;DHT22;1640;48.504;9.224;2023-07-13T15:01:40;33.60;23.50
3256;DHT22;1640;48.504;9.224;2023-07-13T15:04:08;33.60;24.30
3256;DHT22;1640;48.504;9.224;2023-07-13T15:09:20;33.80;23.00
3256;DHT22;1640;48.504;9.224;2023-07-13T15:11:47;34.20;23.00
3256;DHT22;1640;48.504;9.224;2023-07-13T15:14:15;34.80;22.90
3256;DHT22;1640;48.504;9.224;2023-07-13T15:16:43;34.70;21.40
3256;DHT22;1640;48.504;9.224;2023-07-13T15:19:11;33.10;22.60
3256;DHT22;1640;48.504;9.224;2023-07-13T15:21:38;32.60;23.60
3256;DHT22;1640;48.504;9.224;2023-07-13T15:24:08;32.40;24.00
3256;DHT22;1640;48.504;9.224;2023-07-13T15:26:38;32.50;24.00
3256;DHT22;1640;48.504;9.224;2023-07-13T15:29:06;32.70;23.50
3256;DHT22;1640;48.504;9.224;2023-07-13T15:31:34;32.80;23.10
3256;DHT22;1640;48.504;9.224;2023-07-13T15:34:09;31.50;24.40
3256;DHT22;1640;48.504;9.224;2023-07-13T15:36:37;30.10;26.10
3256;DHT22;1640;48.504;9.224;2023-07-13T15:39:05;29.00;27.20
3256;DHT22;1640;48.504;9.224;2023-07-13T15:41:33;28.50;28.40
3256;DHT22;1640;48.504;9.224;2023-07-13T15:44:12;28.40;29.30
3256;DHT22;1640;48.504;9.224;2023-07-13T15:46:46;28.60;29.40
3256;DHT22;1640;48.504;9.224;2023-07-13T15:49:17;28.80;29.30
3256;DHT22;1640;48.504;9.224;2023-07-13T15:51:44;29.50;28.50
3256;DHT22;1640;48.504;9.224;2023-07-13T15:54:16;29.40;27.70
3256;DHT22;1640;48.504;9.224;2023-07-13T15:56:45;29.50;28.60
3256;DHT22;1640;48.504;9.224;2023-07-13T15:59:14;29.10;29.90
3256;DHT22;1640;48.504;9.224;2023-07-13T16:01:42;28.60;31.40
3256;DHT22;1640;48.504;9.224;2023-07-13T16:04:12;28.20;32.20
3256;DHT22;1640;48.504;9.224;2023-07-13T16:06:41;27.80;33.70
3256;DHT22;1640;48.504;9.224;2023-07-13T16:09:12;28.10;32.80
3256;DHT22;1640;48.504;9.224;2023-07-13T16:11:44;29.50;31.40
3256;DHT22;1640;48.504;9.224;2023-07-13T16:14:14;30.10;29.30
3256;DHT22;1640;48.504;9.224;2023-07-13T16:16:43;29.80;29.60
3256;DHT22;1640;48.504;9.224;2023-07-13T16:19:11;29.20;31.50
3256;DHT22;1640;48.504;9.224;2023-07-13T16:21:42;28.60;32.40
3256;DHT22;1640;48.504;9.224;2023-07-13T16:24:17;28.20;33.90
3256;DHT22;1640;48.504;9.224;2023-07-13T16:26:47;27.80;33.70